createdAt,value
2018-06-29T00:00:35.037Z,48.31
2018-06-29T00:03:04.429Z,48.07
2018-06-29T00:05:34.133Z,48.70
2018-06-29T00:08:04.387Z,48.68
2018-06-29T00:10:33.712Z,48.58
2018-06-29T00:13:03.859Z,48.14
2018-06-29T00:15:33.146Z,48.25
2018-06-29T00:18:06.380Z,48.37
2018-06-29T00:20:36.683Z,48.02
2018-06-29T00:23:06.502Z,48.39
2018-06-29T00:25:35.880Z,48.59
2018-06-29T00:28:06.509Z,48.52
2018-06-29T00:30:36.150Z,48.88
2018-06-29T00:33:06.097Z,49.36
2018-06-29T00:35:35.412Z,49.41
2018-06-29T00:38:04.800Z,49.54
2018-06-29T00:40:34.141Z,49.40
2018-06-29T00:43:05.100Z,49.94
2018-06-29T00:45:35.187Z,49.94
2018-06-29T00:48:04.578Z,50.56
2018-06-29T00:50:35.299Z,50.22
2018-06-29T00:53:04.653Z,50.79
2018-06-29T00:55:35.598Z,50.59
2018-06-29T00:58:05.407Z,50.35
2018-06-29T01:00:35.351Z,50.70
2018-06-29T01:03:05.800Z,50.62
2018-06-29T01:05:35.434Z,50.50
2018-06-29T01:08:05.478Z,50.71
2018-06-29T01:10:34.782Z,50.23
2018-06-29T01:13:04.440Z,50.38
2018-06-29T01:15:33.781Z,50.60
2018-06-29T01:18:03.614Z,50.51
2018-06-29T01:20:32.927Z,50.22
2018-06-29T01:23:03.071Z,51.03
2018-06-29T01:25:32.727Z,51.54
2018-06-29T01:28:02.068Z,51.34
2018-06-29T01:30:31.415Z,51.80
2018-06-29T01:33:00.732Z,51.78
2018-06-29T01:35:30.083Z,51.71
2018-06-29T01:37:59.514Z,52.36
2018-06-29T01:40:29.545Z,52.05
2018-06-29T01:42:59.199Z,52.66
2018-06-29T01:45:29.224Z,52.70
2018-06-29T01:47:58.529Z,52.44
2018-06-29T01:50:28.168Z,52.76
2018-06-29T01:52:57.767Z,52.50
2018-06-29T01:55:27.480Z,53.26
2018-06-29T01:57:57.229Z,53.00
2018-06-29T02:00:26.567Z,52.82
2018-06-29T02:02:56.347Z,52.46
2018-06-29T02:05:25.708Z,52.56
2018-06-29T02:07:55.500Z,52.74
2018-06-29T02:10:25.376Z,52.69
2018-06-29T02:12:55.750Z,53.36
2018-06-29T02:15:25.105Z,52.96
2018-06-29T02:17:55.215Z,52.91
2018-06-29T02:20:25.487Z,53.28
2018-06-29T02:22:54.805Z,52.90
2018-06-29T02:25:24.387Z,53.26
2018-06-29T02:27:54.169Z,53.71
2018-06-29T02:30:23.522Z,52.88
2018-06-29T02:32:53.714Z,53.48
2018-06-29T02:35:23.317Z,53.15
2018-06-29T02:37:54.051Z,53.42
2018-06-29T02:40:24.412Z,53.13
2018-06-29T02:42:54.153Z,53.31
2018-06-29T02:45:23.464Z,53.33
2018-06-29T02:47:54.173Z,53.79
2018-06-29T02:50:24.032Z,54.21
2018-06-29T02:52:53.368Z,53.69
2018-06-29T02:55:22.662Z,53.81
2018-06-29T02:57:52.303Z,54.73
2018-06-29T03:00:22.309Z,54.45
2018-06-29T03:02:53.357Z,55.38
2018-06-29T03:05:22.782Z,55.73
2018-06-29T03:07:52.664Z,55.96
2018-06-29T03:10:21.981Z,55.54
2018-06-29T03:12:51.639Z,55.49
2018-06-29T03:15:21.363Z,55.77
2018-06-29T03:17:51.513Z,55.67
2018-06-29T03:20:21.256Z,55.34
2018-06-29T03:22:51.027Z,55.62
2018-06-29T03:25:21.091Z,55.73
2018-06-29T03:27:51.616Z,54.96
2018-06-29T03:30:20.930Z,54.79
2018-06-29T03:32:50.287Z,54.75
2018-06-29T03:35:19.621Z,55.35
2018-06-29T03:37:49.379Z,55.17
2018-06-29T03:40:19.361Z,54.77
2018-06-29T03:42:48.645Z,54.91
2018-06-29T03:45:18.355Z,54.88
2018-06-29T03:47:48.127Z,54.36
2018-06-29T03:50:18.379Z,55.00
2018-06-29T03:52:47.711Z,54.91
2018-06-29T03:55:17.150Z,54.91
2018-06-29T03:57:46.500Z,54.51
2018-06-29T04:00:15.787Z,54.33
2018-06-29T04:02:46.564Z,54.49
2018-06-29T04:05:15.885Z,54.96
2018-06-29T04:07:45.244Z,54.87
2018-06-29T04:10:14.669Z,55.02
2018-06-29T04:12:44.686Z,54.53
2018-06-29T04:15:14.011Z,54.50
2018-06-29T04:17:43.391Z,54.41
2018-06-29T04:20:13.115Z,54.51
2018-06-29T04:22:42.801Z,54.48
2018-06-29T04:25:13.029Z,54.50
2018-06-29T04:27:42.370Z,54.19
2018-06-29T04:30:12.090Z,54.37
2018-06-29T04:32:41.664Z,53.87
2018-06-29T04:35:11.583Z,54.15
2018-06-29T04:37:40.876Z,54.74
2018-06-29T04:40:10.627Z,54.73
2018-06-29T04:42:39.945Z,54.94
2018-06-29T04:45:09.563Z,55.46
2018-06-29T04:47:41.375Z,55.44
2018-06-29T04:50:10.823Z,55.26
2018-06-29T04:52:40.117Z,55.65
2018-06-29T04:55:11.390Z,55.32
2018-06-29T04:57:41.125Z,55.62
2018-06-29T05:00:10.884Z,55.87
2018-06-29T05:02:41.237Z,55.84
2018-06-29T05:05:12.185Z,56.71
2018-06-29T05:07:41.467Z,56.79
2018-06-29T05:10:11.226Z,56.25
2018-06-29T05:12:40.518Z,56.10
2018-06-29T05:15:10.908Z,55.52
2018-06-29T05:17:40.681Z,55.90
2018-06-29T05:20:10.425Z,55.09
2018-06-29T05:22:40.082Z,54.91
2018-06-29T05:25:09.443Z,54.24
2018-06-29T05:27:38.809Z,54.60
2018-06-29T05:30:09.341Z,54.86
2018-06-29T05:32:38.820Z,54.95
2018-06-29T05:35:08.468Z,54.59
2018-06-29T05:37:38.340Z,54.53
2018-06-29T05:40:09.305Z,54.68
2018-06-29T05:42:38.895Z,55.28
2018-06-29T05:45:08.663Z,54.38
2018-06-29T05:47:38.420Z,53.97
2018-06-29T05:50:09.379Z,53.86
2018-06-29T05:52:38.744Z,53.81
2018-06-29T05:55:08.719Z,51.10
2018-06-29T05:57:39.467Z,50.83
2018-06-29T06:00:09.193Z,50.93
2018-06-29T06:02:38.513Z,50.56
2018-06-29T06:05:07.873Z,49.46
2018-06-29T06:07:38.432Z,51.39
2018-06-29T06:10:08.064Z,51.64
2018-06-29T06:12:37.707Z,51.38
2018-06-29T06:15:09.379Z,51.13
2018-06-29T06:17:39.009Z,51.57
2018-06-29T06:20:11.567Z,51.42
2018-06-29T06:22:41.357Z,51.82
2018-06-29T06:25:11.296Z,50.64
2018-06-29T06:27:41.451Z,51.08
2018-06-29T06:30:11.636Z,51.15
2018-06-29T06:32:40.996Z,51.39
2018-06-29T06:35:10.681Z,51.25
2018-06-29T06:37:40.429Z,51.08
2018-06-29T06:40:09.780Z,50.74
2018-06-29T06:42:39.493Z,50.78
2018-06-29T06:45:09.219Z,50.54
2018-06-29T06:47:39.276Z,50.01
2018-06-29T06:50:09.848Z,49.24
2018-06-29T06:52:39.583Z,49.89
2018-06-29T06:55:10.053Z,49.81
2018-06-29T06:57:40.873Z,49.24
2018-06-29T07:00:10.211Z,48.86
2018-06-29T07:02:39.614Z,48.38
2018-06-29T07:05:10.212Z,47.88
2018-06-29T07:07:40.553Z,46.92
2018-06-29T07:10:10.008Z,46.96
2018-06-29T07:12:39.514Z,46.84
2018-06-29T07:15:10.558Z,46.87
2018-06-29T07:17:39.908Z,45.33
2018-06-29T07:20:09.889Z,44.79
2018-06-29T07:22:39.945Z,44.31
2018-06-29T07:25:10.232Z,44.73
2018-06-29T07:27:39.586Z,44.67
2018-06-29T07:30:09.765Z,44.47
2018-06-29T07:32:39.142Z,44.32
2018-06-29T07:35:08.843Z,42.69
2018-06-29T07:37:38.212Z,42.93
2018-06-29T07:40:07.589Z,42.23
2018-06-29T07:42:38.679Z,41.07
2018-06-29T07:45:09.365Z,40.19
2018-06-29T07:47:40.072Z,40.44
2018-06-29T07:50:10.139Z,39.94
2018-06-29T07:52:39.516Z,39.45
2018-06-29T07:55:09.847Z,39.01
2018-06-29T07:57:40.760Z,38.95
2018-06-29T08:00:10.114Z,38.41
2018-06-29T08:02:40.466Z,37.66
2018-06-29T08:05:10.720Z,35.53
2018-06-29T08:07:43.648Z,35.88
2018-06-29T08:10:15.183Z,36.35
2018-06-29T08:12:46.064Z,34.82
2018-06-29T08:15:15.771Z,35.53
2018-06-29T08:17:45.628Z,35.25
2018-06-29T08:20:14.956Z,34.84
2018-06-29T08:22:44.673Z,35.42
2018-06-29T08:25:15.462Z,34.18
2018-06-29T08:27:45.417Z,34.71
2018-06-29T08:30:15.205Z,34.59
2018-06-29T08:32:44.754Z,34.78
2018-06-29T08:35:14.482Z,34.87
2018-06-29T08:37:44.685Z,34.04
2018-06-29T08:40:14.217Z,34.53
2018-06-29T08:42:43.892Z,33.27
2018-06-29T08:45:14.744Z,34.72
2018-06-29T08:47:44.978Z,34.20
2018-06-29T08:50:14.325Z,34.16
2018-06-29T08:52:43.661Z,33.66
2018-06-29T08:55:13.028Z,32.97
2018-06-29T08:57:43.283Z,33.04
2018-06-29T09:00:12.649Z,33.40
2018-06-29T09:02:42.268Z,32.40
2018-06-29T09:05:11.893Z,32.40
2018-06-29T09:07:41.562Z,31.94
2018-06-29T09:10:11.250Z,31.30
2018-06-29T09:12:41.230Z,31.55
2018-06-29T09:15:10.976Z,31.66
2018-06-29T09:17:41.098Z,30.35
2018-06-29T09:20:10.435Z,30.13
2018-06-29T09:22:39.800Z,30.07
2018-06-29T09:25:09.415Z,29.54
2018-06-29T09:27:39.361Z,30.16
2018-06-29T09:30:08.983Z,29.33
2018-06-29T09:32:38.321Z,30.36
2018-06-29T09:35:07.691Z,30.32
2018-06-29T09:37:37.322Z,29.63
2018-06-29T09:40:06.941Z,29.34
2018-06-29T09:42:36.353Z,29.97
2018-06-29T09:45:06.097Z,30.15
2018-06-29T09:47:35.748Z,29.81
2018-06-29T09:50:05.189Z,28.13
2018-06-29T09:52:34.920Z,28.75
2018-06-29T09:55:04.327Z,28.77
2018-06-29T09:57:33.997Z,28.54
2018-06-29T10:00:03.423Z,27.64
2018-06-29T10:02:39.275Z,26.76
2018-06-29T10:05:02.356Z,26.99
2018-06-29T10:07:31.696Z,27.07
2018-06-29T10:10:01.559Z,28.00
2018-06-29T10:12:30.885Z,26.80
2018-06-29T10:15:00.389Z,27.62
2018-06-29T10:17:30.018Z,26.84
2018-06-29T10:19:59.718Z,26.59
2018-06-29T10:22:29.077Z,26.35
2018-06-29T10:24:58.356Z,26.43
2018-06-29T10:27:27.714Z,26.14
2018-06-29T10:29:57.321Z,26.72
2018-06-29T10:32:27.701Z,25.88
2018-06-29T10:34:57.679Z,26.26
2018-06-29T10:37:27.339Z,25.76
2018-06-29T10:39:56.663Z,25.41
2018-06-29T10:42:26.536Z,25.54
2018-06-29T10:44:56.362Z,25.59
2018-06-29T10:47:25.653Z,24.66
2018-06-29T10:49:54.959Z,24.70
2018-06-29T10:52:24.628Z,24.92
2018-06-29T10:54:54.250Z,24.83
2018-06-29T10:57:24.663Z,25.19
2018-06-29T10:59:54.377Z,24.98
2018-06-29T11:02:24.064Z,24.07
2018-06-29T11:04:53.422Z,24.73
2018-06-29T11:07:22.729Z,23.65
2018-06-29T11:09:52.077Z,23.79
2018-06-29T11:12:21.437Z,23.40
2018-06-29T11:14:50.805Z,23.29
2018-06-29T11:17:20.192Z,23.18
2018-06-29T11:19:49.510Z,22.43
2018-06-29T11:22:20.035Z,22.32
2018-06-29T11:24:49.365Z,22.81
2018-06-29T11:27:18.680Z,23.25
2018-06-29T11:29:49.618Z,21.78
2018-06-29T11:32:19.204Z,21.54
2018-06-29T11:34:48.608Z,21.47
2018-06-29T11:37:18.374Z,21.75
2018-06-29T11:39:47.707Z,21.32
2018-06-29T11:42:17.515Z,21.34
2018-06-29T11:44:48.274Z,21.57
2018-06-29T11:47:17.904Z,22.27
2018-06-29T11:49:47.624Z,22.08
2018-06-29T11:52:17.192Z,22.05
2018-06-29T11:54:47.040Z,20.85
2018-06-29T11:57:16.350Z,21.85
2018-06-29T11:59:46.072Z,19.85
2018-06-29T12:02:15.393Z,20.65
2018-06-29T12:04:45.576Z,20.63
2018-06-29T12:07:14.987Z,21.25
2018-06-29T12:09:44.815Z,20.15
2018-06-29T12:12:15.185Z,20.78
2018-06-29T12:14:45.176Z,20.53
2018-06-29T12:17:14.464Z,20.95
2018-06-29T12:19:43.825Z,20.28
2018-06-29T12:22:13.372Z,21.04
2018-06-29T12:24:43.156Z,21.04
2018-06-29T12:27:12.786Z,20.41
2018-06-29T12:29:42.774Z,20.30
2018-06-29T12:32:12.480Z,19.47
2018-06-29T12:34:42.091Z,20.84
2018-06-29T12:37:11.390Z,20.20
2018-06-29T12:39:41.107Z,20.09
2018-06-29T12:42:10.901Z,20.12
2018-06-29T12:44:40.234Z,19.78
2018-06-29T12:47:09.906Z,19.32
2018-06-29T12:49:39.204Z,19.05
2018-06-29T12:52:08.559Z,18.79
2018-06-29T12:54:43.442Z,17.90
2018-06-29T12:57:15.183Z,18.35
2018-06-29T12:59:44.452Z,18.41
2018-06-29T13:02:13.776Z,18.60
2018-06-29T13:04:43.146Z,18.46
2018-06-29T13:07:12.451Z,18.57
2018-06-29T13:09:42.333Z,18.59
2018-06-29T13:12:11.706Z,19.14
2018-06-29T13:14:41.021Z,18.19
2018-06-29T13:17:10.394Z,18.27
2018-06-29T13:19:41.192Z,18.10
2018-06-29T13:22:10.547Z,16.77
2018-06-29T13:24:39.856Z,18.87
2018-06-29T13:27:09.884Z,18.06
2018-06-29T13:29:39.215Z,18.70
2018-06-29T13:32:08.622Z,17.70
2018-06-29T13:34:39.424Z,17.43
2018-06-29T13:37:09.258Z,17.24
2018-06-29T13:39:38.567Z,17.05
2018-06-29T13:42:08.228Z,16.89
2018-06-29T13:44:38.457Z,17.67
2018-06-29T13:47:08.965Z,18.27
2018-06-29T13:49:38.344Z,17.73
2018-06-29T13:52:08.426Z,17.15
2018-06-29T13:54:39.335Z,17.26
2018-06-29T13:57:09.041Z,16.54
2018-06-29T13:59:39.053Z,17.58
2018-06-29T14:02:08.641Z,17.65
2018-06-29T14:04:38.079Z,17.47
2018-06-29T14:07:07.476Z,16.99
2018-06-29T14:09:37.225Z,17.13
2018-06-29T14:12:06.553Z,16.83
2018-06-29T14:14:36.317Z,17.06
2018-06-29T14:17:06.399Z,17.65
2018-06-29T14:19:36.712Z,17.91
2018-06-29T14:22:06.323Z,17.97
2018-06-29T14:24:36.581Z,16.50
2018-06-29T14:27:06.420Z,17.50
2018-06-29T14:29:35.908Z,17.49
2018-06-29T14:32:05.524Z,17.45
2018-06-29T14:34:36.053Z,17.81
2018-06-29T14:37:06.454Z,16.61
2018-06-29T14:39:37.517Z,17.27
2018-06-29T14:42:07.198Z,16.72
2018-06-29T14:44:36.860Z,16.70
2018-06-29T14:47:06.219Z,16.16
2018-06-29T14:49:36.319Z,15.74
2018-06-29T14:52:06.025Z,16.29
2018-06-29T14:54:36.039Z,17.13
2018-06-29T14:57:05.841Z,16.81
2018-06-29T14:59:35.212Z,16.60
2018-06-29T15:02:04.600Z,17.89
2018-06-29T15:04:34.290Z,17.37
2018-06-29T15:07:03.900Z,17.18
2018-06-29T15:09:33.351Z,16.59
2018-06-29T15:12:02.664Z,17.01
2018-06-29T15:14:32.052Z,17.10
2018-06-29T15:17:01.560Z,17.64
2018-06-29T15:19:32.330Z,18.13
2018-06-29T15:22:02.001Z,17.69
2018-06-29T15:24:31.773Z,17.57
2018-06-29T15:27:01.376Z,17.70
2018-06-29T15:29:31.176Z,16.91
2018-06-29T15:32:01.313Z,17.07
2018-06-29T15:34:31.090Z,17.19
2018-06-29T15:37:00.824Z,17.26
2018-06-29T15:39:30.163Z,18.14
2018-06-29T15:42:01.636Z,18.59
2018-06-29T15:44:31.277Z,17.81
2018-06-29T15:47:00.641Z,18.68
2018-06-29T15:49:30.000Z,18.34
2018-06-29T15:51:59.644Z,18.61
2018-06-29T15:54:28.986Z,18.44
2018-06-29T15:56:58.352Z,19.32
2018-06-29T15:59:27.693Z,19.24
2018-06-29T16:01:57.023Z,19.39
2018-06-29T16:04:26.663Z,19.25
2018-06-29T16:06:56.092Z,19.03
2018-06-29T16:09:25.355Z,18.05
2018-06-29T16:11:54.688Z,18.01
2018-06-29T16:14:24.404Z,18.24
2018-06-29T16:16:54.055Z,18.42
2018-06-29T16:19:23.571Z,18.08
2018-06-29T16:21:54.526Z,17.54
2018-06-29T16:24:24.209Z,17.97
2018-06-29T16:26:53.552Z,18.87
2018-06-29T16:29:24.950Z,18.28
2018-06-29T16:31:55.307Z,18.63
2018-06-29T16:34:24.692Z,18.09
2018-06-29T16:36:54.020Z,18.01
2018-06-29T16:39:23.586Z,18.74
2018-06-29T16:41:54.429Z,18.96
2018-06-29T16:44:24.299Z,18.58
2018-06-29T16:46:53.805Z,18.51
2018-06-29T16:49:23.586Z,18.22
2018-06-29T16:51:55.994Z,17.94
2018-06-29T16:54:25.743Z,18.17
2018-06-29T16:56:55.085Z,18.38
2018-06-29T16:59:24.471Z,18.80
2018-06-29T17:01:54.147Z,18.17
2018-06-29T17:04:24.168Z,18.89
2018-06-29T17:06:54.443Z,19.43
2018-06-29T17:09:24.065Z,18.69
2018-06-29T17:11:53.920Z,19.44
2018-06-29T17:14:23.908Z,18.55
2018-06-29T17:16:53.344Z,19.05
2018-06-29T17:19:22.697Z,19.58
2018-06-29T17:21:52.297Z,19.96
2018-06-29T17:24:22.262Z,20.63
2018-06-29T17:26:51.633Z,20.93
2018-06-29T17:29:21.003Z,22.15
2018-06-29T17:31:50.734Z,21.11
2018-06-29T17:34:21.362Z,20.97
2018-06-29T17:36:51.440Z,20.93
2018-06-29T17:39:20.753Z,20.48
2018-06-29T17:41:50.412Z,19.70
2018-06-29T17:44:20.122Z,20.58
2018-06-29T17:46:50.520Z,21.24
2018-06-29T17:49:19.868Z,20.85
2018-06-29T17:51:49.245Z,20.38
2018-06-29T17:54:18.874Z,20.57
2018-06-29T17:56:49.576Z,21.25
2018-06-29T17:59:18.919Z,21.09
2018-06-29T18:01:48.545Z,21.12
2018-06-29T18:04:18.170Z,21.13
2018-06-29T18:06:48.022Z,21.64
2018-06-29T18:09:17.659Z,20.42
2018-06-29T18:11:47.299Z,20.55
2018-06-29T18:14:17.007Z,21.30
2018-06-29T18:16:46.881Z,21.59
2018-06-29T18:19:16.256Z,21.62
2018-06-29T18:21:45.987Z,21.64
2018-06-29T18:24:15.341Z,22.48
2018-06-29T18:26:44.651Z,21.43
2018-06-29T18:29:14.704Z,22.54
2018-06-29T18:31:44.046Z,21.76
2018-06-29T18:34:13.767Z,22.11
2018-06-29T18:36:44.495Z,22.15
2018-06-29T18:39:15.982Z,22.15
2018-06-29T18:41:46.225Z,22.21
2018-06-29T18:44:15.872Z,22.44
2018-06-29T18:46:45.239Z,22.62
2018-06-29T18:49:14.612Z,22.20
2018-06-29T18:51:44.176Z,22.80
2018-06-29T18:54:13.520Z,22.19
2018-06-29T18:56:43.344Z,23.16
2018-06-29T18:59:13.050Z,22.90
2018-06-29T19:01:43.126Z,23.34
2018-06-29T19:04:12.456Z,23.65
2018-06-29T19:06:42.041Z,24.27
2018-06-29T19:09:12.214Z,24.84
2018-06-29T19:11:42.961Z,24.72
2018-06-29T19:14:12.637Z,25.20
2018-06-29T19:16:42.317Z,24.81
2018-06-29T19:19:12.158Z,25.40
2018-06-29T19:21:42.091Z,25.76
2018-06-29T19:24:12.280Z,26.21
2018-06-29T19:26:41.620Z,26.68
2018-06-29T19:29:10.951Z,26.65
2018-06-29T19:31:40.581Z,27.20
2018-06-29T19:34:10.152Z,27.76
2018-06-29T19:36:39.782Z,27.56
2018-06-29T19:39:10.255Z,28.51
2018-06-29T19:41:40.763Z,29.13
2018-06-29T19:44:11.472Z,28.51
2018-06-29T19:46:41.351Z,28.65
2018-06-29T19:49:12.040Z,29.14
2018-06-29T19:51:41.660Z,29.22
2018-06-29T19:54:11.092Z,29.30
2018-06-29T19:56:40.448Z,29.14
2018-06-29T19:59:10.180Z,29.47
2018-06-29T20:01:40.321Z,29.84
2018-06-29T20:04:09.654Z,29.61
2018-06-29T20:06:39.268Z,29.77
2018-06-29T20:09:11.128Z,29.94
2018-06-29T20:11:41.526Z,30.46
2018-06-29T20:14:12.897Z,30.94
2018-06-29T20:16:42.326Z,30.66
2018-06-29T20:19:11.833Z,31.30
2018-06-29T20:21:41.835Z,31.66
2018-06-29T20:24:11.159Z,31.25
2018-06-29T20:26:41.801Z,31.36
2018-06-29T20:29:11.124Z,31.46
2018-06-29T20:31:41.402Z,31.63
2018-06-29T20:34:11.200Z,31.81
2018-06-29T20:36:41.889Z,31.97
2018-06-29T20:39:12.699Z,32.43
2018-06-29T20:41:42.540Z,32.66
2018-06-29T20:44:12.286Z,32.40
2018-06-29T20:46:41.629Z,33.25
2018-06-29T20:49:10.971Z,32.79
2018-06-29T20:51:40.367Z,32.96
2018-06-29T20:54:09.996Z,32.65
2018-06-29T20:56:39.416Z,32.65
2018-06-29T20:59:08.804Z,32.78
2018-06-29T21:01:38.373Z,33.24
2018-06-29T21:04:07.929Z,33.08
2018-06-29T21:06:37.286Z,33.22
2018-06-29T21:09:08.429Z,33.56
2018-06-29T21:11:38.111Z,33.66
2018-06-29T21:14:07.440Z,33.49
2018-06-29T21:16:37.264Z,33.95
2018-06-29T21:19:07.326Z,33.91
2018-06-29T21:21:36.680Z,34.40
2018-06-29T21:24:06.461Z,34.25
2018-06-29T21:26:37.859Z,34.41
2018-06-29T21:29:07.718Z,34.33
2018-06-29T21:31:37.799Z,34.04
2018-06-29T21:34:07.645Z,34.76
2018-06-29T21:36:37.722Z,34.98
2018-06-29T21:39:08.600Z,35.37
2018-06-29T21:41:38.867Z,35.30
2018-06-29T21:44:10.279Z,35.27
2018-06-29T21:46:39.975Z,35.54
2018-06-29T21:49:09.359Z,35.91
2018-06-29T21:51:38.800Z,36.06
2018-06-29T21:54:08.524Z,36.44
2018-06-29T21:56:37.897Z,36.58
2018-06-29T21:59:08.037Z,36.53
2018-06-29T22:01:37.614Z,36.55
2018-06-29T22:04:07.131Z,37.00
2018-06-29T22:06:36.887Z,37.14
2018-06-29T22:09:08.146Z,36.53
2018-06-29T22:11:37.474Z,36.87
2018-06-29T22:14:07.318Z,36.90
2018-06-29T22:16:36.754Z,36.92
2018-06-29T22:19:06.512Z,37.78
2018-06-29T22:21:35.860Z,38.06
2018-06-29T22:24:05.356Z,38.60
2018-06-29T22:26:34.668Z,38.22
2018-06-29T22:29:04.034Z,39.14
2018-06-29T22:31:34.373Z,38.94
2018-06-29T22:34:03.800Z,38.94
2018-06-29T22:36:33.224Z,39.47
2018-06-29T22:39:04.037Z,39.39
2018-06-29T22:41:33.467Z,39.72
2018-06-29T22:44:02.863Z,40.23
2018-06-29T22:46:32.456Z,40.84
2018-06-29T22:49:02.141Z,40.33
2018-06-29T22:51:32.456Z,40.61
2018-06-29T22:54:01.829Z,41.05
2018-06-29T22:56:31.987Z,42.37
2018-06-29T22:59:01.428Z,43.61
2018-06-29T23:01:30.784Z,44.95
2018-06-29T23:04:01.033Z,43.56
2018-06-29T23:06:30.717Z,43.71
2018-06-29T23:09:00.155Z,44.32
2018-06-29T23:11:30.017Z,44.19
2018-06-29T23:13:59.398Z,44.29
2018-06-29T23:16:29.117Z,45.88
2018-06-29T23:18:58.438Z,44.03
2018-06-29T23:21:28.391Z,45.60
2018-06-29T23:23:58.019Z,45.70
2018-06-29T23:26:27.427Z,44.94
2018-06-29T23:28:56.753Z,44.62
2018-06-29T23:31:26.854Z,45.19
2018-06-29T23:33:56.380Z,44.73
2018-06-29T23:36:26.752Z,45.10
2018-06-29T23:38:56.501Z,45.32
2018-06-29T23:41:26.772Z,45.49
2018-06-29T23:43:56.481Z,46.07
2018-06-29T23:46:25.841Z,47.05
2018-06-29T23:48:55.212Z,47.23
2018-06-29T23:51:24.574Z,46.92
2018-06-29T23:53:54.760Z,46.69
2018-06-29T23:58:53.643Z,47.67
